createdAt,value
2023-06-22T00:00:36.982Z,101476.68
2023-06-22T00:03:05.605Z,101474.29
2023-06-22T00:05:33.504Z,101479.59
2023-06-22T00:08:06.129Z,101471.09
2023-06-22T00:10:34.169Z,101469.52
2023-06-22T00:13:02.083Z,101474.52
2023-06-22T00:15:30.862Z,101467.95
2023-06-22T00:17:59.745Z,101467.95
2023-06-22T00:20:32.597Z,101465.04
2023-06-22T00:23:01.908Z,101462.88
2023-06-22T00:25:29.834Z,101468.70
2023-06-22T00:27:57.799Z,101455.49
2023-06-22T00:30:25.764Z,101460.55
2023-06-22T00:32:53.784Z,101456.60
2023-06-22T00:35:21.689Z,101464.55
2023-06-22T00:37:49.607Z,101456.60
2023-06-22T00:40:18.971Z,101462.65
2023-06-22T00:42:46.874Z,101466.38
2023-06-22T00:45:14.788Z,101468.47
2023-06-22T00:47:42.680Z,101465.89
2023-06-22T00:50:12.251Z,101468.57
2023-06-22T00:52:45.646Z,101472.59
2023-06-22T00:55:13.596Z,101467.82
2023-06-22T00:57:42.196Z,101464.68
2023-06-22T01:00:13.391Z,101463.66
2023-06-22T01:02:41.670Z,101462.09
2023-06-22T01:05:09.932Z,101464.77
2023-06-22T01:07:44.130Z,101465.33
2023-06-22T01:10:56.343Z,101466.41
2023-06-22T01:13:35.125Z,101473.80
2023-06-22T01:16:07.850Z,101472.23
2023-06-22T01:18:39.286Z,101479.16
2023-06-22T01:21:11.780Z,101473.64
2023-06-22T01:23:58.130Z,101476.88
2023-06-22T01:26:45.737Z,101477.17
2023-06-22T01:29:16.224Z,101479.10
2023-06-22T01:31:46.388Z,101482.01
2023-06-22T01:34:15.556Z,101489.86
2023-06-22T01:36:44.823Z,101492.51
2023-06-22T01:39:14.167Z,101497.80
2023-06-22T01:41:44.476Z,101483.80
2023-06-22T01:44:13.361Z,101493.62
2023-06-22T01:46:42.222Z,101490.70
2023-06-22T01:49:11.151Z,101499.18
2023-06-22T01:51:39.274Z,101504.24
2023-06-22T01:54:10.481Z,101513.50
2023-06-22T01:56:38.635Z,101512.48
2023-06-22T01:59:20.380Z,101505.65
2023-06-22T02:02:17.186Z,101513.34
2023-06-22T02:04:58.953Z,101515.20
2023-06-22T02:07:35.131Z,101509.70
2023-06-22T02:10:06.066Z,101511.60
2023-06-22T02:12:36.013Z,101508.46
2023-06-22T02:15:04.395Z,101517.48
2023-06-22T02:17:35.565Z,101507.94
2023-06-22T02:20:11.061Z,101509.05
2023-06-22T02:22:39.003Z,101507.94
2023-06-22T02:25:07.154Z,101511.41
2023-06-22T02:27:35.117Z,101524.95
2023-06-22T02:30:03.007Z,101531.52
2023-06-22T02:32:30.918Z,101521.22
2023-06-22T02:34:58.813Z,101539.46
2023-06-22T02:37:27.499Z,101533.91
2023-06-22T02:39:55.409Z,101529.95
2023-06-22T02:42:24.088Z,101531.81
2023-06-22T02:44:52.050Z,101534.49
2023-06-22T02:47:20.011Z,101530.80
2023-06-22T02:49:49.069Z,101535.05
2023-06-22T02:52:17.020Z,101539.82
2023-06-22T02:54:44.902Z,101536.68
2023-06-22T02:57:15.888Z,101538.32
2023-06-22T02:59:44.389Z,101539.13
2023-06-22T03:02:13.672Z,101531.74
2023-06-22T03:04:41.653Z,101543.38
2023-06-22T03:07:09.578Z,101536.29
2023-06-22T03:09:37.594Z,101536.03
2023-06-22T03:12:05.817Z,101533.94
2023-06-22T03:14:33.739Z,101531.02
2023-06-22T03:17:05.374Z,101526.52
2023-06-22T03:19:33.905Z,101517.03
2023-06-22T03:22:02.905Z,101517.78
2023-06-22T03:24:32.029Z,101523.90
2023-06-22T03:27:00.070Z,101514.61
2023-06-22T03:29:31.143Z,101524.84
2023-06-22T03:31:59.606Z,101519.35
2023-06-22T03:34:27.847Z,101519.65
2023-06-22T03:36:55.748Z,101509.61
2023-06-22T03:39:23.662Z,101522.49
2023-06-22T03:41:51.577Z,101526.74
2023-06-22T03:44:19.533Z,101516.18
2023-06-22T03:46:47.421Z,101525.70
2023-06-22T03:49:15.370Z,101525.20
2023-06-22T03:51:43.351Z,101514.12
2023-06-22T03:54:11.413Z,101519.45
2023-06-22T03:56:39.449Z,101522.95
2023-06-22T03:59:07.384Z,101511.08
2023-06-22T04:01:35.246Z,101503.69
2023-06-22T04:04:03.230Z,101522.10
2023-06-22T04:06:31.252Z,101524.75
2023-06-22T04:08:59.180Z,101508.66
2023-06-22T04:11:27.094Z,101522.95
2023-06-22T04:13:55.883Z,101511.08
2023-06-22T04:16:23.850Z,101513.14
2023-06-22T04:18:51.793Z,101525.50
2023-06-22T04:21:21.942Z,101517.06
2023-06-22T04:23:49.825Z,101505.98
2023-06-22T04:26:17.699Z,101510.69
2023-06-22T04:28:45.762Z,101510.39
2023-06-22T04:31:14.737Z,101501.20
2023-06-22T04:33:43.033Z,101473.73
2023-06-22T04:36:10.971Z,101481.88
2023-06-22T04:38:38.920Z,101493.98
2023-06-22T04:41:06.944Z,101485.54
2023-06-22T04:43:36.508Z,101481.32
2023-06-22T04:46:05.767Z,101498.16
2023-06-22T04:48:35.304Z,101510.03
2023-06-22T04:51:06.134Z,101492.57
2023-06-22T04:53:34.262Z,101490.87
2023-06-22T04:56:02.131Z,101500.65
2023-06-22T04:58:31.012Z,101498.52
2023-06-22T05:00:59.663Z,101488.78
2023-06-22T05:03:28.944Z,101489.53
2023-06-22T05:05:56.971Z,101476.77
2023-06-22T05:08:29.081Z,101479.52
2023-06-22T05:11:05.016Z,101489.10
2023-06-22T05:13:34.449Z,101503.72
2023-06-22T05:16:05.098Z,101495.28
2023-06-22T05:18:33.766Z,101479.98
2023-06-22T05:21:02.301Z,101492.63
2023-06-22T05:23:30.292Z,101499.30
2023-06-22T05:26:00.274Z,101486.55
2023-06-22T05:28:28.437Z,101466.94
2023-06-22T05:30:56.597Z,101482.53
2023-06-22T05:33:24.609Z,101489.10
2023-06-22T05:35:52.618Z,101472.46
2023-06-22T05:38:20.570Z,101464.94
2023-06-22T05:40:48.589Z,101477.27
2023-06-22T05:43:16.617Z,101480.18
2023-06-22T05:45:44.623Z,101476.41
2023-06-22T05:48:12.507Z,101472.88
2023-06-22T05:50:40.504Z,101475.63
2023-06-22T05:53:09.283Z,101473.73
2023-06-22T05:55:37.487Z,101476.74
2023-06-22T05:58:08.475Z,101466.61
2023-06-22T06:00:36.586Z,101480.47
2023-06-22T06:03:05.664Z,101481.91
2023-06-22T06:05:34.933Z,101481.62
2023-06-22T06:08:04.051Z,101476.65
2023-06-22T06:10:32.545Z,101477.20
2023-06-22T06:13:01.575Z,101474.91
2023-06-22T06:15:29.594Z,101467.20
2023-06-22T06:17:57.860Z,101470.89
2023-06-22T06:20:27.258Z,101466.28
2023-06-22T06:22:55.290Z,101472.55
2023-06-22T06:25:24.367Z,101474.48
2023-06-22T06:27:53.672Z,101475.37
2023-06-22T06:30:21.661Z,101471.91
2023-06-22T06:32:50.105Z,101467.20
2023-06-22T06:35:19.085Z,101472.33
2023-06-22T06:37:50.384Z,101474.16
2023-06-22T06:40:19.937Z,101470.92
2023-06-22T06:42:50.280Z,101470.79
2023-06-22T06:45:22.019Z,101477.30
2023-06-22T06:47:49.997Z,101472.91
2023-06-22T06:50:18.736Z,101463.83
2023-06-22T06:52:46.943Z,101467.75
2023-06-22T06:55:15.431Z,101474.26
2023-06-22T06:57:44.555Z,101482.66
2023-06-22T07:00:16.137Z,101488.16
2023-06-22T07:02:46.093Z,101489.95
2023-06-22T07:05:15.118Z,101486.45
2023-06-22T07:07:44.344Z,101487.05
2023-06-22T07:10:12.974Z,101482.99
2023-06-22T07:12:41.099Z,101476.02
2023-06-22T07:15:11.481Z,101485.28
2023-06-22T07:17:40.062Z,101468.73
2023-06-22T07:20:12.363Z,101480.27
2023-06-22T07:22:41.593Z,101482.30
2023-06-22T07:25:12.813Z,101472.07
2023-06-22T07:27:45.560Z,101480.27
2023-06-22T07:30:14.218Z,101476.55
2023-06-22T07:32:43.610Z,101461.41
2023-06-22T07:35:11.865Z,101467.69
2023-06-22T07:37:39.893Z,101471.80
2023-06-22T07:40:09.143Z,101468.57
2023-06-22T07:42:37.218Z,101468.99
2023-06-22T07:45:06.601Z,101468.21
2023-06-22T07:47:37.665Z,101462.03
2023-06-22T07:50:06.347Z,101449.63
2023-06-22T07:52:34.977Z,101443.09
2023-06-22T07:55:03.079Z,101460.69
2023-06-22T07:57:36.978Z,101458.07
2023-06-22T08:00:17.213Z,101464.19
2023-06-22T08:02:48.632Z,101476.94
2023-06-22T08:05:23.189Z,101483.71
2023-06-22T08:07:51.916Z,101511.99
2023-06-22T08:10:20.363Z,101550.09
2023-06-22T08:12:48.357Z,101589.30
2023-06-22T08:15:16.632Z,101587.30
2023-06-22T08:17:44.590Z,101557.52
2023-06-22T08:20:16.223Z,101559.84
2023-06-22T08:22:44.825Z,101570.20
2023-06-22T08:25:13.351Z,101585.60
2023-06-22T08:27:41.676Z,101606.63
2023-06-22T08:30:13.360Z,101584.16
2023-06-22T08:32:41.680Z,101565.82
2023-06-22T08:35:13.173Z,101589.82
2023-06-22T08:37:41.662Z,101576.31
2023-06-22T08:40:12.497Z,101570.46
2023-06-22T08:42:42.911Z,101591.36
2023-06-22T08:45:11.648Z,101603.06
2023-06-22T08:47:39.801Z,101578.87
2023-06-22T08:50:10.307Z,101601.01
2023-06-22T08:52:39.039Z,101583.31
2023-06-22T08:55:07.569Z,101571.67
2023-06-22T08:57:35.683Z,101562.38
2023-06-22T09:00:03.619Z,101575.95
2023-06-22T09:02:33.966Z,101579.72
2023-06-22T09:05:02.476Z,101576.84
2023-06-22T09:07:30.620Z,101575.34
2023-06-22T09:10:00.333Z,101569.19
2023-06-22T09:12:33.000Z,101559.64
2023-06-22T09:15:05.048Z,101561.83
2023-06-22T09:17:33.076Z,101539.43
2023-06-22T09:20:01.211Z,101542.21
2023-06-22T09:22:31.627Z,101532.70
2023-06-22T09:24:59.770Z,101534.66
2023-06-22T09:27:27.885Z,101520.63
2023-06-22T09:29:56.083Z,101523.77
2023-06-22T09:32:24.082Z,101523.21
2023-06-22T09:34:51.954Z,101510.72
2023-06-22T09:37:19.911Z,101518.14
2023-06-22T09:39:47.927Z,101512.48
2023-06-22T09:42:15.951Z,101510.75
2023-06-22T09:44:43.874Z,101507.05
2023-06-22T09:47:11.856Z,101505.68
2023-06-22T09:49:48.042Z,101489.27
2023-06-22T09:52:16.926Z,101490.87
2023-06-22T09:54:44.939Z,101495.35
2023-06-22T09:57:12.905Z,101481.45
2023-06-22T09:59:42.462Z,101474.00
2023-06-22T10:02:11.218Z,101478.28
2023-06-22T10:04:39.609Z,101477.49
2023-06-22T10:07:07.796Z,101469.68
2023-06-22T10:09:35.765Z,101461.21
2023-06-22T10:12:03.763Z,101472.95
2023-06-22T10:14:32.182Z,101465.66
2023-06-22T10:17:00.411Z,101466.77
2023-06-22T10:19:28.632Z,101450.65
2023-06-22T10:21:57.807Z,101459.61
2023-06-22T10:24:25.755Z,101465.46
2023-06-22T10:26:53.704Z,101461.90
2023-06-22T10:29:22.731Z,101455.36
2023-06-22T10:31:50.675Z,101444.53
2023-06-22T10:34:18.633Z,101434.43
2023-06-22T10:36:48.698Z,101430.24
2023-06-22T10:39:17.592Z,101429.55
2023-06-22T10:41:45.563Z,101420.86
2023-06-22T10:44:14.594Z,101427.79
2023-06-22T10:46:42.585Z,101424.36
2023-06-22T10:49:10.464Z,101419.16
2023-06-22T10:51:38.408Z,101427.73
2023-06-22T10:54:06.934Z,101432.77
2023-06-22T10:56:36.250Z,101423.51
2023-06-22T10:59:04.290Z,101424.98
2023-06-22T11:01:36.374Z,101434.33
2023-06-22T11:04:06.369Z,101443.69
2023-06-22T11:06:34.438Z,101435.02
2023-06-22T11:09:06.510Z,101438.42
2023-06-22T11:11:45.723Z,101424.72
2023-06-22T11:14:13.988Z,101423.97
2023-06-22T11:16:41.846Z,101425.14
2023-06-22T11:19:09.856Z,101431.29
2023-06-22T11:21:37.765Z,101433.97
2023-06-22T11:24:06.021Z,101444.50
2023-06-22T11:26:37.199Z,101445.02
2023-06-22T11:29:07.912Z,101442.93
2023-06-22T11:31:37.439Z,101445.71
2023-06-22T11:34:05.438Z,101443.98
2023-06-22T11:36:35.370Z,101441.20
2023-06-22T11:41:31.695Z,101448.30
2023-06-22T11:43:59.713Z,101446.92
2023-06-22T11:46:27.893Z,101432.89
2023-06-22T11:48:55.870Z,101431.72
2023-06-22T11:51:23.819Z,101437.44
2023-06-22T11:53:51.814Z,101438.02
2023-06-22T11:56:19.787Z,101432.56
2023-06-22T11:58:47.794Z,101431.78
2023-06-22T12:01:17.467Z,101432.30
2023-06-22T12:03:46.305Z,101426.22
2023-06-22T12:06:14.316Z,101430.48
2023-06-22T12:08:42.362Z,101435.67
2023-06-22T12:11:10.349Z,101434.04
2023-06-22T12:13:38.294Z,101434.46
2023-06-22T12:16:06.477Z,101428.51
2023-06-22T12:18:35.486Z,101430.24
2023-06-22T12:21:03.520Z,101434.30
2023-06-22T12:23:31.497Z,101446.59
2023-06-22T12:25:59.524Z,101438.91
2023-06-22T12:28:27.452Z,101437.24
2023-06-22T12:30:55.374Z,101437.24
2023-06-22T12:33:23.265Z,101431.55
2023-06-22T12:35:51.611Z,101434.30
2023-06-22T12:38:19.528Z,101431.36
2023-06-22T12:40:49.582Z,101435.97
2023-06-22T12:43:17.599Z,101426.78
2023-06-22T12:45:45.620Z,101433.13
2023-06-22T12:48:15.181Z,101423.93
2023-06-22T12:50:43.093Z,101423.93
2023-06-22T12:53:11.092Z,101421.22
2023-06-22T12:55:38.977Z,101418.11
2023-06-22T12:58:06.993Z,101419.59
2023-06-22T13:00:35.033Z,101411.31
2023-06-22T13:03:03.250Z,101403.76
2023-06-22T13:05:31.361Z,101411.73
2023-06-22T13:07:59.343Z,101422.82
2023-06-22T13:10:27.501Z,101411.28
2023-06-22T13:13:02.660Z,101423.73
2023-06-22T13:15:31.656Z,101419.26
2023-06-22T13:17:59.828Z,101417.59
2023-06-22T13:20:27.751Z,101394.21
2023-06-22T13:22:56.508Z,101398.10
2023-06-22T13:25:26.240Z,101391.76
2023-06-22T13:27:54.519Z,101385.87
2023-06-22T13:30:22.534Z,101385.25
2023-06-22T13:32:50.659Z,101386.20
2023-06-22T13:35:18.654Z,101377.80
2023-06-22T13:37:46.710Z,101372.85
2023-06-22T13:40:14.660Z,101378.74
2023-06-22T13:42:43.017Z,101377.53
2023-06-22T13:45:11.482Z,101377.99
2023-06-22T13:47:39.888Z,101378.31
2023-06-22T13:50:08.760Z,101372.13
2023-06-22T13:52:36.695Z,101376.02
2023-06-22T13:55:04.894Z,101377.76
2023-06-22T13:57:32.881Z,101372.46
2023-06-22T14:00:00.908Z,101382.24
2023-06-22T14:02:29.165Z,101378.05
2023-06-22T14:04:57.243Z,101384.50
2023-06-22T14:07:26.538Z,101390.91
2023-06-22T14:09:54.494Z,101393.55
2023-06-22T14:12:22.523Z,101388.78
2023-06-22T14:14:50.440Z,101394.54
2023-06-22T14:17:18.559Z,101388.52
2023-06-22T14:19:47.047Z,101398.63
2023-06-22T14:22:14.984Z,101395.71
2023-06-22T14:24:42.930Z,101408.59
2023-06-22T14:27:11.560Z,101410.16
2023-06-22T14:29:39.554Z,101411.38
2023-06-22T14:32:08.890Z,101401.14
2023-06-22T14:34:41.823Z,101405.46
2023-06-22T14:37:12.121Z,101401.60
2023-06-22T14:39:40.007Z,101405.75
2023-06-22T14:42:08.766Z,101413.34
2023-06-22T14:44:37.485Z,101405.13
2023-06-22T14:47:05.531Z,101400.45
2023-06-22T14:49:33.520Z,101386.49
2023-06-22T14:52:01.399Z,101381.23
2023-06-22T14:54:29.402Z,101372.37
2023-06-22T14:56:57.347Z,101362.30
2023-06-22T14:59:25.231Z,101361.54
2023-06-22T15:01:53.549Z,101364.02
2023-06-22T15:04:21.704Z,101372.23
2023-06-22T15:06:49.730Z,101374.72
2023-06-22T15:09:17.785Z,101382.34
2023-06-22T15:11:45.688Z,101390.12
2023-06-22T15:14:16.231Z,101392.18
2023-06-22T15:16:44.160Z,101390.35
2023-06-22T15:19:12.226Z,101405.26
2023-06-22T15:21:40.185Z,101392.38
2023-06-22T15:24:08.764Z,101374.85
2023-06-22T15:26:36.908Z,101373.90
2023-06-22T15:29:05.030Z,101367.98
2023-06-22T15:31:33.127Z,101353.56
2023-06-22T15:34:01.133Z,101353.04
2023-06-22T15:36:29.028Z,101369.32
2023-06-22T15:38:56.965Z,101359.84
2023-06-22T15:41:25.493Z,101364.48
2023-06-22T15:43:53.429Z,101365.27
2023-06-22T15:46:21.438Z,101354.74
2023-06-22T15:48:51.215Z,101348.36
2023-06-22T15:51:20.185Z,101343.85
2023-06-22T15:53:48.712Z,101356.27
2023-06-22T15:56:16.705Z,101360.92
2023-06-22T15:58:44.650Z,101369.65
2023-06-22T16:01:12.648Z,101362.06
2023-06-22T16:03:41.244Z,101359.38
2023-06-22T16:06:09.274Z,101362.33
2023-06-22T16:08:37.416Z,101364.65
2023-06-22T16:11:05.536Z,101372.07
2023-06-22T16:13:33.493Z,101366.91
2023-06-22T16:16:01.644Z,101364.55
2023-06-22T16:18:29.672Z,101362.33
2023-06-22T16:20:57.598Z,101372.59
2023-06-22T16:23:25.913Z,101364.32
2023-06-22T16:25:54.016Z,101372.30
2023-06-22T16:28:22.081Z,101370.08
2023-06-22T16:30:52.021Z,101375.27
2023-06-22T16:33:21.393Z,101365.23
2023-06-22T16:35:49.346Z,101374.91
2023-06-22T16:38:17.388Z,101373.31
2023-06-22T16:40:45.436Z,101377.95
2023-06-22T16:43:13.443Z,101377.89
2023-06-22T16:45:41.544Z,101371.29
2023-06-22T16:48:10.415Z,101369.20
2023-06-22T16:50:38.377Z,101380.41
2023-06-22T16:53:06.503Z,101396.17
2023-06-22T16:55:35.951Z,101417.39
2023-06-22T16:58:05.863Z,101431.20
2023-06-22T17:00:33.820Z,101432.83
2023-06-22T17:03:07.659Z,101442.64
2023-06-22T17:05:35.813Z,101456.02
2023-06-22T17:08:08.207Z,101465.10
2023-06-22T17:10:36.416Z,101493.35
2023-06-22T17:13:06.985Z,101520.30
2023-06-22T17:15:38.060Z,101517.20
2023-06-22T17:18:08.192Z,101485.18
2023-06-22T17:20:36.217Z,101514.09
2023-06-22T17:23:04.411Z,101499.57
2023-06-22T17:25:35.487Z,101471.15
2023-06-22T17:28:04.749Z,101456.38
2023-06-22T17:30:33.202Z,101435.61
2023-06-22T17:33:02.153Z,101389.04
2023-06-22T17:35:33.302Z,101332.63
2023-06-22T17:38:04.490Z,101293.59
2023-06-22T17:40:37.168Z,101307.62
2023-06-22T17:43:09.281Z,101345.55
2023-06-22T17:45:44.837Z,101372.01
2023-06-22T17:48:13.403Z,101418.11
2023-06-22T17:50:45.285Z,101452.68
2023-06-22T17:53:14.892Z,101457.05
2023-06-22T17:55:42.893Z,101461.24
2023-06-22T17:58:11.153Z,101461.84
2023-06-22T18:00:39.521Z,101473.44
2023-06-22T18:03:07.797Z,101483.09
2023-06-22T18:05:39.831Z,101491.66
2023-06-22T18:08:08.684Z,101509.51
2023-06-22T18:10:38.700Z,101523.44
2023-06-22T18:13:06.851Z,101539.76
2023-06-22T18:15:37.439Z,101555.26
2023-06-22T18:18:06.163Z,101558.49
2023-06-22T18:20:35.707Z,101575.37
2023-06-22T18:23:03.958Z,101588.16
2023-06-22T18:25:39.214Z,101598.59
2023-06-22T18:28:09.361Z,101597.60
2023-06-22T18:30:38.109Z,101602.97
2023-06-22T18:33:06.127Z,101586.03
2023-06-22T18:35:34.468Z,101585.57
2023-06-22T18:38:03.858Z,101577.13
2023-06-22T18:40:31.877Z,101591.06
2023-06-22T18:43:05.515Z,101568.60
2023-06-22T18:45:37.005Z,101554.60
2023-06-22T18:48:07.096Z,101545.94
2023-06-22T18:50:39.725Z,101539.20
2023-06-22T18:53:14.276Z,101550.88
2023-06-22T18:55:44.312Z,101555.59
2023-06-22T18:58:21.349Z,101562.38
2023-06-22T19:00:53.953Z,101560.59
2023-06-22T19:03:40.309Z,101593.55
2023-06-22T19:06:08.513Z,101590.73
2023-06-22T19:09:15.232Z,101602.25
2023-06-22T19:11:43.137Z,101598.16
2023-06-22T19:14:11.646Z,101604.86
2023-06-22T19:16:39.606Z,101624.77
2023-06-22T19:19:18.444Z,101629.68
2023-06-22T19:22:00.772Z,101629.20
2023-06-22T19:24:55.469Z,101638.61
2023-06-22T19:27:23.906Z,101648.02
2023-06-22T19:29:55.455Z,101644.33
2023-06-22T19:32:23.967Z,101653.95
2023-06-22T19:34:52.021Z,101662.19
2023-06-22T19:37:20.407Z,101663.04
2023-06-22T19:39:49.116Z,101662.80
2023-06-22T19:42:17.419Z,101668.40
2023-06-22T19:44:47.086Z,101676.87
2023-06-22T19:47:16.022Z,101673.73
2023-06-22T19:49:44.882Z,101684.03
2023-06-22T19:52:12.878Z,101684.69
2023-06-22T19:54:43.979Z,101690.73
2023-06-22T19:57:12.389Z,101685.50
2023-06-22T19:59:41.329Z,101682.95
2023-06-22T20:02:11.625Z,101685.14
2023-06-22T20:04:39.897Z,101687.07
2023-06-22T20:07:08.917Z,101701.63
2023-06-22T20:09:40.611Z,101714.90
2023-06-22T20:12:11.837Z,101721.63
2023-06-22T20:14:39.886Z,101721.41
2023-06-22T20:17:08.150Z,101731.80
2023-06-22T20:19:43.536Z,101724.45
2023-06-22T20:22:12.763Z,101720.06
2023-06-22T20:24:43.918Z,101714.05
2023-06-22T20:27:15.478Z,101715.16
2023-06-22T20:29:44.973Z,101709.34
2023-06-22T20:32:16.803Z,101709.34
2023-06-22T20:34:50.256Z,101697.80
2023-06-22T20:37:24.081Z,101702.63
2023-06-22T20:39:52.475Z,101706.37
2023-06-22T20:42:20.460Z,101692.66
2023-06-22T20:44:52.277Z,101682.13
2023-06-22T20:47:22.822Z,101687.37
2023-06-22T20:49:51.455Z,101692.44
2023-06-22T20:52:20.249Z,101699.04
2023-06-22T20:54:48.483Z,101710.16
2023-06-22T20:57:16.428Z,101701.95
2023-06-22T20:59:44.433Z,101698.52
2023-06-22T21:02:12.665Z,101704.86
2023-06-22T21:04:43.721Z,101702.54
2023-06-22T21:07:11.662Z,101711.23
2023-06-22T21:09:50.764Z,101713.10
2023-06-22T21:12:20.491Z,101718.10
2023-06-22T21:14:48.508Z,101729.74
2023-06-22T21:17:16.631Z,101738.45
2023-06-22T21:19:44.642Z,101735.30
2023-06-22T21:22:13.023Z,101733.73
2023-06-22T21:24:42.789Z,101741.65
2023-06-22T21:27:12.401Z,101744.10
2023-06-22T21:29:40.333Z,101749.40
2023-06-22T21:32:08.795Z,101749.17
2023-06-22T21:34:36.761Z,101750.28
2023-06-22T21:37:04.969Z,101751.66
2023-06-22T21:39:33.138Z,101755.61
2023-06-22T21:42:01.339Z,101759.60
2023-06-22T21:44:29.316Z,101767.84
2023-06-22T21:46:57.211Z,101769.67
2023-06-22T21:49:25.168Z,101770.49
2023-06-22T21:51:53.249Z,101767.02
2023-06-22T21:54:21.374Z,101782.88
2023-06-22T21:56:49.532Z,101776.84
2023-06-22T21:59:17.500Z,101780.27
2023-06-22T22:01:45.614Z,101774.74
2023-06-22T22:04:13.585Z,101772.09
2023-06-22T22:06:41.570Z,101785.01
2023-06-22T22:09:09.584Z,101780.01
2023-06-22T22:11:37.693Z,101794.27
2023-06-22T22:14:06.408Z,101802.66
2023-06-22T22:16:34.356Z,101812.45
2023-06-22T22:19:02.842Z,101809.27
2023-06-22T22:21:30.984Z,101807.96
2023-06-22T22:24:00.701Z,101815.84
2023-06-22T22:26:28.640Z,101809.27
2023-06-22T22:28:56.850Z,101806.36
2023-06-22T22:31:24.860Z,101809.27
2023-06-22T22:33:52.856Z,101796.62
2023-06-22T22:36:21.114Z,101801.36
2023-06-22T22:38:49.021Z,101801.09
2023-06-22T22:41:16.881Z,101806.13
2023-06-22T22:43:44.875Z,101795.83
2023-06-22T22:46:12.835Z,101793.18
2023-06-22T22:48:40.709Z,101806.63
2023-06-22T22:51:11.124Z,101798.74
2023-06-22T22:53:39.182Z,101793.18
2023-06-22T22:56:08.098Z,101798.74
2023-06-22T22:58:36.189Z,101799.27
2023-06-22T23:01:04.477Z,101802.66
2023-06-22T23:03:32.816Z,101792.70
2023-06-22T23:06:00.951Z,101797.66
2023-06-22T23:08:28.998Z,101805.31
2023-06-22T23:10:57.243Z,101810.84
2023-06-22T23:13:25.283Z,101818.49
2023-06-22T23:15:53.740Z,101826.15
2023-06-22T23:18:21.835Z,101842.76
2023-06-22T23:20:49.866Z,101837.75
2023-06-22T23:23:17.807Z,101844.59
2023-06-22T23:25:47.111Z,101850.37
2023-06-22T23:28:17.294Z,101848.28
2023-06-22T23:30:51.084Z,101854.85
2023-06-22T23:33:19.036Z,101855.12
2023-06-22T23:35:47.057Z,101860.91
2023-06-22T23:38:14.980Z,101866.98
2023-06-22T23:40:42.906Z,101877.78
2023-06-22T23:43:10.803Z,101895.21
2023-06-22T23:45:38.795Z,101899.69
2023-06-22T23:48:07.034Z,101900.47
2023-06-22T23:50:35.002Z,101899.95
2023-06-22T23:53:03.048Z,101920.23
2023-06-22T23:55:32.347Z,101921.83
2023-06-22T23:58:00.428Z,101912.87
